createdAt,value
2022-08-17T00:00:43.570Z,1005.85
2022-08-17T00:01:17.941Z,1005.82
2022-08-17T00:02:25.334Z,1005.80
2022-08-17T00:03:17.906Z,1005.85
2022-08-17T00:04:16.904Z,1005.81
2022-08-17T00:05:16.878Z,1005.79
2022-08-17T00:06:16.887Z,1005.81
2022-08-17T00:07:16.836Z,1005.84
2022-08-17T00:08:16.839Z,1005.85
2022-08-17T00:09:18.835Z,1005.86
2022-08-17T00:10:16.822Z,1005.88
2022-08-17T00:11:16.908Z,1005.85
2022-08-17T00:12:41.808Z,1005.86
2022-08-17T00:13:17.775Z,1005.87
2022-08-17T00:14:16.771Z,1005.85
2022-08-17T00:15:16.754Z,1005.89
2022-08-17T00:16:16.768Z,1005.88
2022-08-17T00:17:16.732Z,1005.89
2022-08-17T00:19:01.685Z,1005.88
2022-08-17T00:19:17.760Z,1005.88
2022-08-17T00:20:16.723Z,1005.88
2022-08-17T00:21:16.715Z,1005.83
2022-08-17T00:22:32.178Z,1005.86
2022-08-17T00:23:17.697Z,1005.85
2022-08-17T00:24:16.723Z,1005.81
2022-08-17T00:25:16.668Z,1005.90
2022-08-17T00:26:16.658Z,1005.85
2022-08-17T00:27:17.638Z,1005.87
2022-08-17T00:28:16.640Z,1005.87
2022-08-17T00:29:20.009Z,1005.84
2022-08-17T00:30:16.615Z,1005.86
2022-08-17T00:31:16.604Z,1005.86
2022-08-17T00:33:12.527Z,1005.84
2022-08-17T00:33:17.582Z,1005.84
2022-08-17T00:34:16.567Z,1005.86
2022-08-17T00:35:16.570Z,1005.85
2022-08-17T00:36:16.571Z,1005.86
2022-08-17T00:37:16.530Z,1005.89
2022-08-17T00:38:16.531Z,1005.88
2022-08-17T00:39:16.528Z,1005.88
2022-08-17T00:40:16.610Z,1005.88
2022-08-17T00:41:16.500Z,1005.87
2022-08-17T00:42:16.480Z,1005.86
2022-08-17T00:43:16.480Z,1005.88
2022-08-17T00:44:16.450Z,1005.87
2022-08-17T00:45:16.452Z,1005.84
2022-08-17T00:46:16.444Z,1005.85
2022-08-17T00:47:16.416Z,1005.83
2022-08-17T00:48:30.283Z,1005.81
2022-08-17T00:49:17.397Z,1005.79
2022-08-17T00:50:16.386Z,1005.79
2022-08-17T00:51:17.505Z,1005.79
2022-08-17T00:52:16.363Z,1005.79
2022-08-17T00:53:16.370Z,1005.81
2022-08-17T00:54:16.377Z,1005.80
2022-08-17T00:55:16.336Z,1005.81
2022-08-17T00:56:16.324Z,1005.79
2022-08-17T00:57:16.330Z,1005.82
2022-08-17T00:58:16.321Z,1005.85
2022-08-17T00:59:17.307Z,1005.82
2022-08-17T01:00:16.290Z,1005.87
2022-08-17T01:01:21.842Z,1005.86
2022-08-17T01:02:17.277Z,1005.86
2022-08-17T01:03:16.277Z,1005.89
2022-08-17T01:04:16.246Z,1005.88
2022-08-17T01:05:16.247Z,1005.81
2022-08-17T01:06:16.215Z,1005.89
2022-08-17T01:07:16.222Z,1005.86
2022-08-17T01:08:16.202Z,1005.89
2022-08-17T01:09:16.190Z,1005.90
2022-08-17T01:10:59.041Z,1005.88
2022-08-17T01:11:17.181Z,1005.90
2022-08-17T01:12:16.156Z,1005.89
2022-08-17T01:13:16.162Z,1005.92
2022-08-17T01:14:16.145Z,1005.96
2022-08-17T01:15:16.151Z,1005.97
2022-08-17T01:16:16.162Z,1006.02
2022-08-17T01:17:16.133Z,1006.02
2022-08-17T01:18:16.085Z,1006.03
2022-08-17T01:19:16.091Z,1006.04
2022-08-17T01:20:16.085Z,1006.06
2022-08-17T01:21:16.069Z,1006.07
2022-08-17T01:22:16.066Z,1006.09
2022-08-17T01:23:18.557Z,1006.10
2022-08-17T01:24:16.049Z,1006.12
2022-08-17T01:25:16.015Z,1006.09
2022-08-17T01:26:15.997Z,1006.08
2022-08-17T01:27:16.042Z,1006.08
2022-08-17T01:28:36.498Z,1006.08
2022-08-17T01:29:16.993Z,1006.08
2022-08-17T01:30:57.755Z,1006.09
2022-08-17T01:31:16.975Z,1006.08
2022-08-17T01:32:15.934Z,1006.04
2022-08-17T01:33:15.958Z,1006.05
2022-08-17T01:34:15.964Z,1006.03
2022-08-17T01:35:15.927Z,1006.06
2022-08-17T01:36:15.925Z,1006.03
2022-08-17T01:37:15.906Z,1006.02
2022-08-17T01:38:15.915Z,1006.05
2022-08-17T01:39:16.882Z,1006.06
2022-08-17T01:40:15.932Z,1006.03
2022-08-17T01:41:15.860Z,1006.05
2022-08-17T01:42:15.850Z,1006.08
2022-08-17T01:43:15.841Z,1006.10
2022-08-17T01:44:15.825Z,1006.09
2022-08-17T01:45:15.799Z,1006.09
2022-08-17T01:46:15.804Z,1006.10
2022-08-17T01:47:15.798Z,1006.09
2022-08-17T01:48:15.792Z,1006.09
2022-08-17T01:49:15.758Z,1006.10
2022-08-17T01:50:15.760Z,1006.11
2022-08-17T01:51:15.756Z,1006.12
2022-08-17T01:52:15.747Z,1006.17
2022-08-17T01:53:15.740Z,1006.18
2022-08-17T01:54:15.717Z,1006.17
2022-08-17T01:55:15.716Z,1006.18
2022-08-17T01:56:15.688Z,1006.19
2022-08-17T01:57:15.710Z,1006.18
2022-08-17T01:58:15.675Z,1006.17
2022-08-17T01:59:15.671Z,1006.17
2022-08-17T02:00:15.665Z,1006.20
2022-08-17T02:01:15.720Z,1006.21
2022-08-17T02:02:30.953Z,1006.18
2022-08-17T02:03:16.645Z,1006.17
2022-08-17T02:04:15.622Z,1006.18
2022-08-17T02:05:15.598Z,1006.16
2022-08-17T02:06:27.120Z,1006.14
2022-08-17T02:07:16.578Z,1006.16
2022-08-17T02:08:19.714Z,1006.12
2022-08-17T02:09:16.795Z,1006.13
2022-08-17T02:10:19.798Z,1006.13
2022-08-17T02:11:15.568Z,1006.15
2022-08-17T02:12:37.966Z,1006.14
2022-08-17T02:13:16.516Z,1006.12
2022-08-17T02:14:15.531Z,1006.14
2022-08-17T02:15:15.499Z,1006.14
2022-08-17T02:16:15.496Z,1006.12
2022-08-17T02:17:15.486Z,1006.11
2022-08-17T02:18:15.465Z,1006.08
2022-08-17T02:19:15.451Z,1006.12
2022-08-17T02:20:15.454Z,1006.13
2022-08-17T02:21:16.441Z,1006.10
2022-08-17T02:22:15.421Z,1006.14
2022-08-17T02:23:15.409Z,1006.11
2022-08-17T02:24:15.386Z,1006.13
2022-08-17T02:25:15.375Z,1006.13
2022-08-17T02:26:25.955Z,1006.12
2022-08-17T02:27:16.354Z,1006.15
2022-08-17T02:28:15.347Z,1006.15
2022-08-17T02:29:15.341Z,1006.16
2022-08-17T02:30:59.223Z,1006.18
2022-08-17T02:31:16.352Z,1006.16
2022-08-17T02:32:15.360Z,1006.16
2022-08-17T02:33:16.294Z,1006.13
2022-08-17T02:34:15.376Z,1006.13
2022-08-17T02:35:15.276Z,1006.13
2022-08-17T02:36:15.279Z,1006.10
2022-08-17T02:37:15.261Z,1006.09
2022-08-17T02:38:15.251Z,1006.08
2022-08-17T02:39:15.228Z,1006.08
2022-08-17T02:40:15.281Z,1006.05
2022-08-17T02:41:15.227Z,1006.00
2022-08-17T02:42:15.196Z,1005.97
2022-08-17T02:43:15.198Z,1005.95
2022-08-17T02:44:15.180Z,1005.97
2022-08-17T02:45:16.166Z,1005.98
2022-08-17T02:46:15.161Z,1005.99
2022-08-17T02:47:15.147Z,1005.97
2022-08-17T02:48:15.141Z,1005.96
2022-08-17T02:49:16.151Z,1005.95
2022-08-17T02:50:15.121Z,1006.00
2022-08-17T02:51:15.096Z,1005.98
2022-08-17T02:52:15.102Z,1006.02
2022-08-17T02:53:15.074Z,1005.98
2022-08-17T02:54:41.317Z,1006.00
2022-08-17T02:55:16.089Z,1005.97
2022-08-17T02:56:15.079Z,1006.02
2022-08-17T02:57:15.052Z,1006.03
2022-08-17T02:58:15.059Z,1006.05
2022-08-17T02:59:16.011Z,1006.07
2022-08-17T03:00:14.994Z,1006.08
2022-08-17T03:01:15.061Z,1006.07
2022-08-17T03:02:14.983Z,1006.11
2022-08-17T03:03:14.966Z,1006.10
2022-08-17T03:04:14.948Z,1006.11
2022-08-17T03:05:14.974Z,1006.12
2022-08-17T03:06:14.936Z,1006.08
2022-08-17T03:07:14.975Z,1006.09
2022-08-17T03:08:14.931Z,1006.08
2022-08-17T03:09:14.907Z,1006.05
2022-08-17T03:10:14.900Z,1006.03
2022-08-17T03:11:14.894Z,1006.07
2022-08-17T03:12:14.887Z,1006.01
2022-08-17T03:13:14.879Z,1006.05
2022-08-17T03:14:14.872Z,1006.02
2022-08-17T03:15:14.850Z,1006.03
2022-08-17T03:16:14.827Z,1006.01
2022-08-17T03:17:17.366Z,1006.02
2022-08-17T03:18:19.174Z,1006.02
2022-08-17T03:19:15.788Z,1006.03
2022-08-17T03:20:14.788Z,1006.05
2022-08-17T03:21:14.767Z,1006.02
2022-08-17T03:22:37.231Z,1006.00
2022-08-17T03:23:15.760Z,1006.02
2022-08-17T03:24:14.761Z,1005.98
2022-08-17T03:25:14.753Z,1006.01
2022-08-17T03:26:15.473Z,1005.99
2022-08-17T03:27:14.719Z,1005.98
2022-08-17T03:28:14.737Z,1005.99
2022-08-17T03:29:14.713Z,1006.01
2022-08-17T03:30:14.710Z,1005.99
2022-08-17T03:31:14.673Z,1005.99
2022-08-17T03:32:14.714Z,1005.99
2022-08-17T03:33:14.688Z,1005.99
2022-08-17T03:34:14.665Z,1006.00
2022-08-17T03:35:14.619Z,1006.01
2022-08-17T03:36:14.622Z,1005.99
2022-08-17T03:37:14.601Z,1006.03
2022-08-17T03:38:15.167Z,1006.00
2022-08-17T03:39:14.597Z,1006.03
2022-08-17T03:40:14.641Z,1006.03
2022-08-17T03:41:14.569Z,1006.03
2022-08-17T03:42:31.974Z,1006.01
2022-08-17T03:43:15.550Z,1006.03
2022-08-17T03:44:14.539Z,1005.99
2022-08-17T03:45:15.592Z,1006.00
2022-08-17T03:46:34.476Z,1005.97
2022-08-17T03:47:15.488Z,1005.99
2022-08-17T03:48:14.496Z,1006.00
2022-08-17T03:49:14.470Z,1006.01
2022-08-17T03:50:14.457Z,1005.99
2022-08-17T03:51:14.897Z,1005.97
2022-08-17T03:52:14.439Z,1006.00
2022-08-17T03:53:14.436Z,1005.99
2022-08-17T03:54:14.441Z,1005.98
2022-08-17T03:55:14.405Z,1005.99
2022-08-17T03:56:14.416Z,1006.02
2022-08-17T03:57:14.422Z,1006.01
2022-08-17T03:58:14.401Z,1006.00
2022-08-17T03:59:20.883Z,1006.01
2022-08-17T04:00:15.359Z,1006.02
2022-08-17T04:01:14.377Z,1006.02
2022-08-17T04:02:14.358Z,1006.04
2022-08-17T04:03:14.317Z,1006.06
2022-08-17T04:04:14.375Z,1006.03
2022-08-17T04:05:14.328Z,1006.04
2022-08-17T04:06:14.288Z,1006.04
2022-08-17T04:07:14.276Z,1006.04
2022-08-17T04:08:14.283Z,1006.04
2022-08-17T04:09:14.250Z,1006.05
2022-08-17T04:10:14.261Z,1006.04
2022-08-17T04:11:14.248Z,1006.02
2022-08-17T04:12:14.240Z,1006.04
2022-08-17T04:13:14.210Z,1006.06
2022-08-17T04:14:14.212Z,1006.05
2022-08-17T04:15:14.211Z,1006.03
2022-08-17T04:16:14.188Z,1006.05
2022-08-17T04:17:14.176Z,1006.06
2022-08-17T04:18:14.194Z,1006.05
2022-08-17T04:19:14.149Z,1006.06
2022-08-17T04:20:14.160Z,1006.09
2022-08-17T04:21:14.149Z,1006.12
2022-08-17T04:22:32.283Z,1006.09
2022-08-17T04:23:15.104Z,1006.10
2022-08-17T04:24:14.095Z,1006.09
2022-08-17T04:25:14.094Z,1006.09
2022-08-17T04:26:54.263Z,1006.06
2022-08-17T04:27:15.072Z,1006.08
2022-08-17T04:28:15.965Z,1006.10
2022-08-17T04:29:14.038Z,1006.06
2022-08-17T04:30:14.047Z,1006.06
2022-08-17T04:31:14.030Z,1006.06
2022-08-17T04:32:14.006Z,1006.06
2022-08-17T04:33:14.317Z,1006.08
2022-08-17T04:34:14.021Z,1006.07
2022-08-17T04:35:13.981Z,1006.07
2022-08-17T04:36:13.992Z,1006.09
2022-08-17T04:37:13.949Z,1006.12
2022-08-17T04:38:13.993Z,1006.12
2022-08-17T04:39:13.939Z,1006.10
2022-08-17T04:40:13.993Z,1006.09
2022-08-17T04:41:13.933Z,1006.09
2022-08-17T04:42:13.918Z,1006.12
2022-08-17T04:43:13.879Z,1006.14
2022-08-17T04:44:13.912Z,1006.17
2022-08-17T04:45:14.891Z,1006.19
2022-08-17T04:46:13.869Z,1006.15
2022-08-17T04:47:13.856Z,1006.17
2022-08-17T04:48:13.856Z,1006.18
2022-08-17T04:49:13.847Z,1006.22
2022-08-17T04:50:13.821Z,1006.21
2022-08-17T04:51:13.837Z,1006.23
2022-08-17T04:52:29.791Z,1006.24
2022-08-17T04:53:14.803Z,1006.23
2022-08-17T04:54:13.828Z,1006.25
2022-08-17T04:55:13.782Z,1006.23
2022-08-17T04:56:16.944Z,1006.26
2022-08-17T04:57:14.758Z,1006.28
2022-08-17T04:58:13.733Z,1006.25
2022-08-17T04:59:13.743Z,1006.26
2022-08-17T05:00:13.756Z,1006.26
2022-08-17T05:01:13.743Z,1006.27
2022-08-17T05:02:13.690Z,1006.25
2022-08-17T05:03:13.658Z,1006.28
2022-08-17T05:04:32.894Z,1006.27
2022-08-17T05:05:14.674Z,1006.29
2022-08-17T05:06:13.666Z,1006.28
2022-08-17T05:07:13.666Z,1006.30
2022-08-17T05:08:13.632Z,1006.30
2022-08-17T05:09:13.608Z,1006.31
2022-08-17T05:10:13.616Z,1006.31
2022-08-17T05:11:13.588Z,1006.31
2022-08-17T05:12:13.579Z,1006.35
2022-08-17T05:13:13.571Z,1006.33
2022-08-17T05:14:13.548Z,1006.38
2022-08-17T05:15:13.564Z,1006.38
2022-08-17T05:16:13.552Z,1006.43
2022-08-17T05:17:13.558Z,1006.45
2022-08-17T05:18:13.524Z,1006.45
2022-08-17T05:19:13.504Z,1006.48
2022-08-17T05:20:13.502Z,1006.54
2022-08-17T05:21:13.495Z,1006.55
2022-08-17T05:22:13.543Z,1006.58
2022-08-17T05:23:13.464Z,1006.57
2022-08-17T05:24:17.629Z,1006.55
2022-08-17T05:25:14.446Z,1006.59
2022-08-17T05:26:26.369Z,1006.58
2022-08-17T05:27:19.034Z,1006.64
2022-08-17T05:28:13.433Z,1006.62
2022-08-17T05:29:13.401Z,1006.61
2022-08-17T05:30:13.389Z,1006.58
2022-08-17T05:31:13.368Z,1006.60
2022-08-17T05:32:39.571Z,1006.60
2022-08-17T05:33:14.387Z,1006.57
2022-08-17T05:34:13.336Z,1006.58
2022-08-17T05:35:13.332Z,1006.59
2022-08-17T05:36:41.902Z,1006.61
2022-08-17T05:37:14.324Z,1006.58
2022-08-17T05:38:13.343Z,1006.63
2022-08-17T05:39:16.333Z,1006.59
2022-08-17T05:40:13.294Z,1006.56
2022-08-17T05:41:13.261Z,1006.57
2022-08-17T05:42:13.260Z,1006.61
2022-08-17T05:43:13.240Z,1006.60
2022-08-17T05:44:13.281Z,1006.60
2022-08-17T05:45:13.233Z,1006.55
2022-08-17T05:46:13.234Z,1006.60
2022-08-17T05:47:13.203Z,1006.62
2022-08-17T05:48:13.213Z,1006.59
2022-08-17T05:49:13.179Z,1006.59
2022-08-17T05:50:13.203Z,1006.56
2022-08-17T05:51:14.165Z,1006.54
2022-08-17T05:52:13.152Z,1006.59
2022-08-17T05:53:13.133Z,1006.62
2022-08-17T05:54:13.133Z,1006.64
2022-08-17T05:55:13.124Z,1006.70
2022-08-17T05:56:27.969Z,1006.70
2022-08-17T05:57:14.098Z,1006.69
2022-08-17T05:58:13.070Z,1006.71
2022-08-17T05:59:13.110Z,1006.70
2022-08-17T06:00:13.074Z,1006.70
2022-08-17T06:01:13.116Z,1006.65
2022-08-17T06:02:13.044Z,1006.66
2022-08-17T06:03:13.028Z,1006.66
2022-08-17T06:04:13.030Z,1006.66
2022-08-17T06:05:13.025Z,1006.69
2022-08-17T06:06:13.002Z,1006.68
2022-08-17T06:07:13.012Z,1006.66
2022-08-17T06:08:12.981Z,1006.70
2022-08-17T06:09:13.021Z,1006.71
2022-08-17T06:10:12.943Z,1006.66
2022-08-17T06:11:12.975Z,1006.71
2022-08-17T06:12:14.455Z,1006.69
2022-08-17T06:13:13.909Z,1006.75
2022-08-17T06:14:12.914Z,1006.71
2022-08-17T06:15:12.943Z,1006.73
2022-08-17T06:16:32.994Z,1006.72
2022-08-17T06:17:13.867Z,1006.74
2022-08-17T06:18:15.989Z,1006.74
2022-08-17T06:19:13.860Z,1006.75
2022-08-17T06:20:12.871Z,1006.76
2022-08-17T06:21:12.832Z,1006.73
2022-08-17T06:22:12.836Z,1006.74
2022-08-17T06:23:12.813Z,1006.78
2022-08-17T06:24:12.848Z,1006.76
2022-08-17T06:25:12.804Z,1006.78
2022-08-17T06:26:12.794Z,1006.80
2022-08-17T06:27:12.767Z,1006.81
2022-08-17T06:28:13.988Z,1006.78
2022-08-17T06:29:18.741Z,1006.77
2022-08-17T06:30:13.745Z,1006.78
2022-08-17T06:31:12.749Z,1006.76
2022-08-17T06:32:19.732Z,1006.74
2022-08-17T06:33:12.690Z,1006.74
2022-08-17T06:34:15.341Z,1006.72
2022-08-17T06:35:12.680Z,1006.74
2022-08-17T06:36:15.961Z,1006.73
2022-08-17T06:37:12.681Z,1006.75
2022-08-17T06:38:21.820Z,1006.77
2022-08-17T06:39:13.629Z,1006.75
2022-08-17T06:40:12.695Z,1006.76
2022-08-17T06:41:12.622Z,1006.76
2022-08-17T06:42:55.077Z,1006.73
2022-08-17T06:43:14.081Z,1006.74
2022-08-17T06:44:12.596Z,1006.74
2022-08-17T06:45:13.595Z,1006.71
2022-08-17T06:46:12.594Z,1006.75
2022-08-17T06:47:12.550Z,1006.79
2022-08-17T06:48:12.569Z,1006.81
2022-08-17T06:49:12.542Z,1006.80
2022-08-17T06:50:12.569Z,1006.82
2022-08-17T06:51:12.545Z,1006.85
2022-08-17T06:52:12.524Z,1006.86
2022-08-17T06:53:13.491Z,1006.87
2022-08-17T06:54:12.499Z,1006.83
2022-08-17T06:55:17.810Z,1006.84
2022-08-17T06:56:13.464Z,1006.85
2022-08-17T06:57:12.475Z,1006.84
2022-08-17T06:58:16.719Z,1006.84
2022-08-17T06:59:12.501Z,1006.82
2022-08-17T07:00:12.413Z,1006.85
2022-08-17T07:01:12.487Z,1006.82
2022-08-17T07:02:12.435Z,1006.79
2022-08-17T07:03:12.362Z,1006.81
2022-08-17T07:04:12.462Z,1006.78
2022-08-17T07:05:12.393Z,1006.84
2022-08-17T07:06:12.360Z,1006.81
2022-08-17T07:07:12.330Z,1006.81
2022-08-17T07:08:12.322Z,1006.80
2022-08-17T07:09:12.325Z,1006.82
2022-08-17T07:10:12.336Z,1006.84
2022-08-17T07:11:12.295Z,1006.78
2022-08-17T07:12:12.294Z,1006.84
2022-08-17T07:13:12.284Z,1006.81
2022-08-17T07:14:16.665Z,1006.84
2022-08-17T07:15:13.253Z,1006.81
2022-08-17T07:16:12.237Z,1006.83
2022-08-17T07:17:12.220Z,1006.80
2022-08-17T07:18:12.255Z,1006.79
2022-08-17T07:19:12.237Z,1006.79
2022-08-17T07:20:12.202Z,1006.83
2022-08-17T07:21:17.535Z,1006.81
2022-08-17T07:22:13.204Z,1006.81
2022-08-17T07:23:12.174Z,1006.84
2022-08-17T07:24:26.303Z,1006.83
2022-08-17T07:25:13.138Z,1006.86
2022-08-17T07:26:12.137Z,1006.81
2022-08-17T07:27:12.139Z,1006.81
2022-08-17T07:28:12.127Z,1006.85
2022-08-17T07:29:12.089Z,1006.84
2022-08-17T07:30:12.081Z,1006.84
2022-08-17T07:31:12.094Z,1006.83
2022-08-17T07:32:12.077Z,1006.86
2022-08-17T07:33:13.568Z,1006.84
2022-08-17T07:34:12.041Z,1006.82
2022-08-17T07:35:12.066Z,1006.82
2022-08-17T07:36:12.022Z,1006.84
2022-08-17T07:37:12.018Z,1006.90
2022-08-17T07:38:25.310Z,1006.88
2022-08-17T07:39:12.990Z,1006.90
2022-08-17T07:40:15.947Z,1006.89
2022-08-17T07:41:12.005Z,1006.93
2022-08-17T07:42:11.971Z,1006.90
2022-08-17T07:43:18.796Z,1006.93
2022-08-17T07:44:12.920Z,1006.92
2022-08-17T07:45:11.952Z,1006.92
2022-08-17T07:46:11.981Z,1006.94
2022-08-17T07:47:12.035Z,1006.95
2022-08-17T07:48:11.904Z,1006.94
2022-08-17T07:49:11.877Z,1006.96
2022-08-17T07:50:11.873Z,1006.96
2022-08-17T07:51:11.865Z,1006.93
2022-08-17T07:52:24.955Z,1006.94
2022-08-17T07:53:12.860Z,1006.94
2022-08-17T07:54:14.916Z,1006.92
2022-08-17T07:55:11.879Z,1006.95
2022-08-17T07:56:11.813Z,1006.95
2022-08-17T07:57:11.824Z,1006.94
2022-08-17T07:58:11.771Z,1006.94
2022-08-17T07:59:11.783Z,1006.93
2022-08-17T08:00:12.657Z,1006.92
2022-08-17T08:01:11.753Z,1006.90
2022-08-17T08:02:11.773Z,1006.91
2022-08-17T08:03:11.742Z,1006.88
2022-08-17T08:04:15.174Z,1006.90
2022-08-17T08:05:12.734Z,1006.89
2022-08-17T08:06:11.724Z,1006.88
2022-08-17T08:07:11.685Z,1006.89
2022-08-17T08:08:11.707Z,1006.88
2022-08-17T08:09:11.727Z,1006.91
2022-08-17T08:10:11.662Z,1006.89
2022-08-17T08:11:11.670Z,1006.86
2022-08-17T08:12:11.647Z,1006.87
2022-08-17T08:13:14.051Z,1006.87
2022-08-17T08:14:11.601Z,1006.87
2022-08-17T08:15:11.690Z,1006.86
2022-08-17T08:16:11.643Z,1006.89
2022-08-17T08:17:11.609Z,1006.85
2022-08-17T08:18:11.555Z,1006.89
2022-08-17T08:19:11.610Z,1006.87
2022-08-17T08:20:47.638Z,1006.89
2022-08-17T08:21:12.583Z,1006.90
2022-08-17T08:22:11.531Z,1006.91
2022-08-17T08:23:11.533Z,1006.94
2022-08-17T08:24:11.501Z,1006.96
2022-08-17T08:25:11.503Z,1006.95
2022-08-17T08:26:15.195Z,1006.98
2022-08-17T08:27:12.516Z,1007.01
2022-08-17T08:28:11.475Z,1006.99
2022-08-17T08:29:11.475Z,1007.02
2022-08-17T08:30:12.125Z,1006.99
2022-08-17T08:31:11.493Z,1006.97
2022-08-17T08:32:11.426Z,1006.95
2022-08-17T08:33:11.428Z,1006.95
2022-08-17T08:35:00.687Z,1006.95
2022-08-17T08:35:12.425Z,1006.99
2022-08-17T08:36:11.361Z,1006.94
2022-08-17T08:37:16.562Z,1006.94
2022-08-17T08:38:12.346Z,1006.96
2022-08-17T08:39:11.332Z,1006.94
2022-08-17T08:40:11.476Z,1006.94
2022-08-17T08:41:11.334Z,1006.92
2022-08-17T08:42:11.326Z,1006.87
2022-08-17T08:43:11.312Z,1006.86
2022-08-17T08:44:11.283Z,1006.83
2022-08-17T08:45:11.284Z,1006.85
2022-08-17T08:46:11.281Z,1006.83
2022-08-17T08:47:11.286Z,1006.83
2022-08-17T08:48:22.955Z,1006.83
2022-08-17T08:49:12.675Z,1006.79
2022-08-17T08:50:30.277Z,1006.82
2022-08-17T08:51:12.241Z,1006.82
2022-08-17T08:52:11.190Z,1006.78
2022-08-17T08:53:11.206Z,1006.77
2022-08-17T08:54:11.356Z,1006.80
2022-08-17T08:55:11.241Z,1006.80
2022-08-17T08:56:11.165Z,1006.80
2022-08-17T08:57:25.111Z,1006.82
2022-08-17T08:58:31.691Z,1006.82
2022-08-17T08:59:12.121Z,1006.81
2022-08-17T09:00:11.137Z,1006.83
2022-08-17T09:01:16.949Z,1006.87
2022-08-17T09:02:12.111Z,1006.80
2022-08-17T09:03:11.091Z,1006.80
2022-08-17T09:04:23.678Z,1006.78
2022-08-17T09:05:14.712Z,1006.82
2022-08-17T09:06:37.399Z,1006.83
2022-08-17T09:07:12.033Z,1006.76
2022-08-17T09:08:11.075Z,1006.76
2022-08-17T09:09:11.047Z,1006.74
2022-08-17T09:10:11.015Z,1006.76
2022-08-17T09:11:11.024Z,1006.77
2022-08-17T09:12:11.004Z,1006.81
2022-08-17T09:13:11.071Z,1006.85
2022-08-17T09:14:21.167Z,1006.85
2022-08-17T09:15:13.071Z,1006.85
2022-08-17T09:16:11.011Z,1006.86
2022-08-17T09:17:10.955Z,1006.84
2022-08-17T09:19:11.943Z,1006.84
2022-08-17T09:20:10.902Z,1006.85
2022-08-17T09:21:10.896Z,1006.84
2022-08-17T09:22:10.868Z,1006.77
2022-08-17T09:23:11.477Z,1006.76
2022-08-17T09:24:10.862Z,1006.73
2022-08-17T09:25:10.876Z,1006.74
2022-08-17T09:26:10.834Z,1006.73
2022-08-17T09:27:10.865Z,1006.72
2022-08-17T09:28:10.835Z,1006.73
2022-08-17T09:29:10.793Z,1006.72
2022-08-17T09:30:10.808Z,1006.76
2022-08-17T09:31:10.786Z,1006.75
2022-08-17T09:32:10.791Z,1006.71
2022-08-17T09:33:10.764Z,1006.69
2022-08-17T09:34:10.774Z,1006.70
2022-08-17T09:35:10.722Z,1006.67
2022-08-17T09:36:10.745Z,1006.69
2022-08-17T09:37:10.756Z,1006.69
2022-08-17T09:38:10.716Z,1006.70
2022-08-17T09:39:10.685Z,1006.71
2022-08-17T09:40:10.736Z,1006.70
2022-08-17T09:41:10.677Z,1006.69
2022-08-17T09:42:10.678Z,1006.74
2022-08-17T09:43:10.660Z,1006.75
2022-08-17T09:44:23.192Z,1006.77
2022-08-17T09:45:12.542Z,1006.78
2022-08-17T09:46:10.656Z,1006.79
2022-08-17T09:47:10.627Z,1006.78
2022-08-17T09:48:10.613Z,1006.79
2022-08-17T09:49:10.586Z,1006.77
2022-08-17T09:50:10.565Z,1006.76
2022-08-17T09:51:10.587Z,1006.77
2022-08-17T09:52:10.605Z,1006.77
2022-08-17T09:53:10.572Z,1006.78
2022-08-17T09:54:37.492Z,1006.79
2022-08-17T09:55:11.535Z,1006.77
2022-08-17T09:56:10.535Z,1006.80
2022-08-17T09:57:29.224Z,1006.82
2022-08-17T09:58:11.535Z,1006.76
2022-08-17T09:59:10.483Z,1006.74
2022-08-17T10:00:10.487Z,1006.71
2022-08-17T10:01:10.489Z,1006.70
2022-08-17T10:02:12.361Z,1006.72
2022-08-17T10:03:10.421Z,1006.69
2022-08-17T10:04:10.403Z,1006.65
2022-08-17T10:05:10.435Z,1006.62
2022-08-17T10:06:10.392Z,1006.63
2022-08-17T10:07:10.373Z,1006.65
2022-08-17T10:08:10.410Z,1006.58
2022-08-17T10:09:10.385Z,1006.62
2022-08-17T10:10:14.026Z,1006.58
2022-08-17T10:11:10.386Z,1006.60
2022-08-17T10:12:10.337Z,1006.54
2022-08-17T10:13:10.325Z,1006.58
2022-08-17T10:14:36.382Z,1006.60
2022-08-17T10:15:11.292Z,1006.60
2022-08-17T10:16:10.271Z,1006.61
2022-08-17T10:17:10.299Z,1006.58
2022-08-17T10:18:10.276Z,1006.55
2022-08-17T10:19:10.274Z,1006.56
2022-08-17T10:20:10.232Z,1006.55
2022-08-17T10:21:10.245Z,1006.53
2022-08-17T10:22:26.427Z,1006.52
2022-08-17T10:23:11.201Z,1006.51
2022-08-17T10:24:10.222Z,1006.52
2022-08-17T10:25:22.471Z,1006.48
2022-08-17T10:26:11.184Z,1006.48
2022-08-17T10:27:10.179Z,1006.54
2022-08-17T10:28:19.773Z,1006.55
2022-08-17T10:29:11.186Z,1006.57
2022-08-17T10:30:10.154Z,1006.54
2022-08-17T10:31:33.817Z,1006.57
2022-08-17T10:32:11.250Z,1006.56
2022-08-17T10:33:10.116Z,1006.55
2022-08-17T10:34:10.106Z,1006.57
2022-08-17T10:35:10.086Z,1006.56
2022-08-17T10:36:10.873Z,1006.61
2022-08-17T10:37:10.104Z,1006.60
2022-08-17T10:38:10.042Z,1006.63
2022-08-17T10:39:10.045Z,1006.61
2022-08-17T10:40:10.077Z,1006.63
2022-08-17T10:41:10.027Z,1006.59
2022-08-17T10:42:10.003Z,1006.56
2022-08-17T10:43:10.048Z,1006.58
2022-08-17T10:44:38.631Z,1006.59
2022-08-17T10:45:11.029Z,1006.62
2022-08-17T10:46:30.375Z,1006.59
2022-08-17T10:47:10.966Z,1006.58
2022-08-17T10:48:10.238Z,1006.55
2022-08-17T10:49:09.922Z,1006.59
2022-08-17T10:50:09.918Z,1006.58
2022-08-17T10:51:09.931Z,1006.55
2022-08-17T10:52:09.915Z,1006.55
2022-08-17T10:53:09.895Z,1006.53
2022-08-17T10:54:09.883Z,1006.57
2022-08-17T10:55:09.873Z,1006.57
2022-08-17T10:56:09.851Z,1006.61
2022-08-17T10:57:09.846Z,1006.59
2022-08-17T10:58:09.820Z,1006.62
2022-08-17T10:59:09.831Z,1006.63
2022-08-17T11:00:09.837Z,1006.60
2022-08-17T11:01:09.908Z,1006.63
2022-08-17T11:02:09.782Z,1006.61
2022-08-17T11:03:09.785Z,1006.62
2022-08-17T11:04:09.788Z,1006.59
2022-08-17T11:05:09.784Z,1006.63
2022-08-17T11:06:09.756Z,1006.60
2022-08-17T11:07:09.731Z,1006.58
2022-08-17T11:08:09.720Z,1006.61
2022-08-17T11:09:09.726Z,1006.59
2022-08-17T11:10:09.705Z,1006.60
2022-08-17T11:11:09.719Z,1006.57
2022-08-17T11:12:09.684Z,1006.54
2022-08-17T11:13:09.675Z,1006.53
2022-08-17T11:14:09.652Z,1006.51
2022-08-17T11:15:09.677Z,1006.52
2022-08-17T11:16:09.638Z,1006.51
2022-08-17T11:17:09.665Z,1006.46
2022-08-17T11:18:09.613Z,1006.43
2022-08-17T11:19:09.613Z,1006.44
2022-08-17T11:20:09.598Z,1006.42
2022-08-17T11:21:09.582Z,1006.47
2022-08-17T11:22:09.568Z,1006.48
2022-08-17T11:23:09.574Z,1006.41
2022-08-17T11:24:09.563Z,1006.39
2022-08-17T11:25:09.531Z,1006.42
2022-08-17T11:26:09.521Z,1006.43
2022-08-17T11:27:12.395Z,1006.39
2022-08-17T11:28:09.548Z,1006.37
2022-08-17T11:29:09.560Z,1006.42
2022-08-17T11:30:09.495Z,1006.41
2022-08-17T11:31:09.472Z,1006.40
2022-08-17T11:32:11.195Z,1006.40
2022-08-17T11:33:09.453Z,1006.38
2022-08-17T11:34:09.442Z,1006.39
2022-08-17T11:35:09.447Z,1006.38
2022-08-17T11:36:09.436Z,1006.35
2022-08-17T11:37:09.435Z,1006.34
2022-08-17T11:38:15.947Z,1006.33
2022-08-17T11:39:10.403Z,1006.35
2022-08-17T11:40:09.418Z,1006.33
2022-08-17T11:41:09.373Z,1006.33
2022-08-17T11:42:09.396Z,1006.37
2022-08-17T11:43:09.331Z,1006.33
2022-08-17T11:44:09.353Z,1006.34
2022-08-17T11:45:09.525Z,1006.30
2022-08-17T11:46:09.325Z,1006.31
2022-08-17T11:47:09.283Z,1006.34
2022-08-17T11:48:27.282Z,1006.35
2022-08-17T11:49:10.305Z,1006.35
2022-08-17T11:50:09.349Z,1006.38
2022-08-17T11:51:09.301Z,1006.40
2022-08-17T11:52:09.243Z,1006.35
2022-08-17T11:53:09.222Z,1006.31
2022-08-17T11:54:31.512Z,1006.28
2022-08-17T11:55:34.019Z,1006.23
2022-08-17T11:56:10.219Z,1006.20
2022-08-17T11:57:09.202Z,1006.17
2022-08-17T11:58:09.216Z,1006.19
2022-08-17T11:59:09.176Z,1006.20
2022-08-17T12:00:09.257Z,1006.24
2022-08-17T12:01:09.142Z,1006.23
2022-08-17T12:02:09.766Z,1006.23
2022-08-17T12:03:09.188Z,1006.24
2022-08-17T12:04:09.222Z,1006.22
2022-08-17T12:05:09.715Z,1006.18
2022-08-17T12:06:09.114Z,1006.21